createdAt,value
2019-01-21T00:00:46.077Z,37.25
2019-01-21T00:03:14.984Z,40.73
2019-01-21T00:06:02.758Z,44.83
2019-01-21T00:08:32.302Z,40.23
2019-01-21T00:11:03.453Z,41.43
2019-01-21T00:13:32.368Z,43.63
2019-01-21T00:16:02.508Z,38.37
2019-01-21T00:18:30.797Z,40.73
2019-01-21T00:21:00.722Z,45.20
2019-01-21T00:23:29.234Z,52.13
2019-01-21T00:26:00.470Z,49.07
2019-01-21T00:28:28.757Z,48.17
2019-01-21T00:30:57.074Z,51.53
2019-01-21T00:33:26.490Z,49.67
2019-01-21T00:35:56.138Z,52.15
2019-01-21T00:38:24.502Z,51.23
2019-01-21T00:40:54.082Z,53.57
2019-01-21T00:43:22.356Z,47.57
2019-01-21T00:45:52.384Z,48.90
2019-01-21T00:48:20.668Z,51.40
2019-01-21T00:50:51.713Z,51.95
2019-01-21T00:53:20.038Z,53.17
2019-01-21T00:55:48.398Z,43.07
2019-01-21T00:58:16.754Z,51.40
2019-01-21T01:00:45.765Z,44.40
2019-01-21T01:03:17.621Z,48.57
2019-01-21T01:05:47.083Z,48.03
2019-01-21T01:08:15.531Z,45.97
2019-01-21T01:10:46.731Z,46.40
2019-01-21T01:13:16.448Z,45.67
2019-01-21T01:15:44.775Z,42.07
2019-01-21T01:18:15.912Z,46.00
2019-01-21T01:20:44.187Z,40.55
2019-01-21T01:23:16.420Z,43.77
2019-01-21T01:25:46.420Z,46.10
2019-01-21T01:28:14.707Z,44.53
2019-01-21T01:30:44.417Z,43.10
2019-01-21T01:33:15.662Z,43.13
2019-01-21T01:35:44.028Z,42.27
2019-01-21T01:38:12.358Z,41.10
2019-01-21T01:40:40.701Z,36.30
2019-01-21T01:43:10.609Z,45.97
2019-01-21T01:45:39.013Z,39.60
2019-01-21T01:48:07.541Z,44.00
2019-01-21T01:50:36.008Z,42.47
2019-01-21T01:53:05.653Z,37.50
2019-01-21T01:55:37.924Z,45.40
2019-01-21T01:58:10.755Z,40.50
2019-01-21T02:00:39.287Z,39.17
2019-01-21T02:03:07.821Z,43.07
2019-01-21T02:05:37.071Z,43.38
2019-01-21T02:08:05.452Z,44.20
2019-01-21T02:10:34.024Z,43.40
2019-01-21T02:13:02.413Z,40.65
2019-01-21T02:15:30.891Z,44.13
2019-01-21T02:17:59.178Z,43.38
2019-01-21T02:20:27.462Z,39.70
2019-01-21T02:22:58.287Z,43.60
2019-01-21T02:25:29.769Z,53.57
2019-01-21T02:28:15.745Z,40.00
2019-01-21T02:31:03.773Z,42.43
2019-01-21T02:33:35.480Z,39.97
2019-01-21T02:36:13.189Z,43.07
2019-01-21T02:38:53.575Z,49.47
2019-01-21T02:41:26.470Z,49.70
2019-01-21T02:44:16.242Z,49.77
2019-01-21T02:46:56.975Z,44.90
2019-01-21T02:49:46.401Z,44.60
2019-01-21T02:52:41.900Z,41.43
2019-01-21T02:55:26.444Z,40.83
2019-01-21T02:58:15.925Z,37.33
2019-01-21T03:01:05.212Z,39.50
2019-01-21T03:03:44.409Z,40.23
2019-01-21T03:06:21.650Z,41.18
2019-01-21T03:09:11.121Z,43.15
2019-01-21T03:12:01.244Z,37.20
2019-01-21T03:14:41.998Z,39.53
2019-01-21T03:17:36.082Z,40.53
2019-01-21T03:20:31.613Z,40.03
2019-01-21T03:23:30.274Z,40.43
2019-01-21T03:26:30.437Z,40.43
2019-01-21T03:29:07.761Z,36.33
2019-01-21T03:31:42.948Z,47.35
2019-01-21T03:34:29.370Z,45.50
2019-01-21T03:37:17.503Z,38.03
2019-01-21T03:40:13.298Z,46.60
2019-01-21T03:42:53.777Z,38.93
2019-01-21T03:45:49.715Z,40.00
2019-01-21T03:48:21.802Z,40.95
2019-01-21T03:51:14.528Z,49.08
2019-01-21T03:53:57.876Z,44.63
2019-01-21T03:56:32.096Z,44.20
2019-01-21T03:59:24.903Z,40.60
2019-01-21T04:02:22.331Z,40.53
2019-01-21T04:04:59.798Z,37.40
2019-01-21T04:07:31.465Z,42.50
2019-01-21T04:10:13.324Z,41.20
2019-01-21T04:12:45.042Z,36.07
2019-01-21T04:15:33.268Z,42.43
2019-01-21T04:18:33.165Z,43.23
2019-01-21T04:21:35.036Z,45.13
2019-01-21T04:24:21.730Z,41.90
2019-01-21T04:27:14.370Z,41.20
2019-01-21T04:30:14.587Z,41.30
2019-01-21T04:32:46.651Z,40.48
2019-01-21T04:35:24.281Z,43.37
2019-01-21T04:38:15.785Z,40.85
2019-01-21T04:40:51.335Z,38.45
2019-01-21T04:43:32.280Z,45.03
2019-01-21T04:46:09.702Z,43.50
2019-01-21T04:49:03.857Z,38.80
2019-01-21T04:51:35.492Z,44.83
2019-01-21T04:54:15.668Z,40.57
2019-01-21T04:56:56.955Z,42.50
2019-01-21T04:59:48.314Z,43.50
2019-01-21T05:02:31.797Z,41.65
2019-01-21T05:05:12.737Z,44.97
2019-01-21T05:07:49.966Z,43.68
2019-01-21T05:10:45.087Z,42.83
2019-01-21T05:13:28.597Z,39.63
2019-01-21T05:16:06.064Z,41.90
2019-01-21T05:18:58.617Z,45.17
2019-01-21T05:21:45.682Z,42.23
2019-01-21T05:24:41.429Z,34.80
2019-01-21T05:27:28.779Z,42.53
2019-01-21T05:30:09.095Z,39.93
2019-01-21T05:32:49.511Z,40.10
2019-01-21T05:35:23.983Z,38.38
2019-01-21T05:38:12.916Z,40.67
2019-01-21T05:40:59.216Z,51.63
2019-01-21T05:43:49.105Z,48.70
2019-01-21T05:46:38.440Z,52.20
2019-01-21T05:49:15.663Z,44.17
2019-01-21T05:52:02.671Z,48.83
2019-01-21T05:54:57.735Z,46.68
2019-01-21T05:57:41.149Z,39.83
2019-01-21T06:00:29.545Z,43.63
2019-01-21T06:03:16.043Z,39.20
2019-01-21T06:05:59.483Z,38.13
2019-01-21T06:08:37.046Z,37.63
2019-01-21T06:11:17.331Z,38.50
2019-01-21T06:13:54.775Z,39.07
2019-01-21T06:16:52.173Z,36.38
2019-01-21T06:19:40.400Z,41.30
2019-01-21T06:22:27.075Z,39.07
2019-01-21T06:25:01.346Z,39.87
2019-01-21T06:27:36.844Z,38.83
2019-01-21T06:30:34.248Z,33.77
2019-01-21T06:33:15.951Z,37.37
2019-01-21T06:36:03.728Z,33.43
2019-01-21T06:38:58.769Z,37.23
2019-01-21T06:41:42.248Z,35.63
2019-01-21T06:44:22.624Z,39.37
2019-01-21T06:47:14.600Z,35.40
2019-01-21T06:50:10.020Z,37.45
2019-01-21T06:53:02.808Z,37.97
2019-01-21T06:55:43.271Z,34.30
2019-01-21T06:58:15.083Z,37.10
2019-01-21T07:01:07.959Z,35.60
2019-01-21T07:03:54.320Z,41.58
2019-01-21T07:06:42.976Z,41.43
2019-01-21T07:09:23.210Z,39.23
2019-01-21T07:12:21.294Z,40.30
2019-01-21T07:15:11.107Z,38.88
2019-01-21T07:18:15.980Z,38.83
2019-01-21T07:20:56.877Z,43.60
2019-01-21T07:23:34.468Z,42.53
2019-01-21T07:26:18.097Z,47.67
2019-01-21T07:29:14.946Z,42.05
2019-01-21T07:32:04.835Z,42.73
2019-01-21T07:34:43.706Z,40.07
2019-01-21T07:37:18.114Z,44.77
2019-01-21T07:40:07.658Z,43.23
2019-01-21T07:42:53.706Z,39.80
2019-01-21T07:45:26.296Z,37.93
2019-01-21T07:48:32.159Z,40.78
2019-01-21T07:51:18.726Z,44.75
2019-01-21T07:53:50.460Z,40.03
2019-01-21T07:56:40.010Z,38.97
2019-01-21T07:59:34.991Z,41.70
2019-01-21T08:02:12.491Z,43.33
2019-01-21T08:05:18.821Z,41.97
2019-01-21T08:07:53.081Z,40.98
2019-01-21T08:10:42.582Z,44.93
2019-01-21T08:13:17.320Z,49.10
2019-01-21T08:16:18.637Z,45.47
2019-01-21T08:19:00.403Z,44.53
2019-01-21T08:21:31.988Z,43.33
2019-01-21T08:24:26.082Z,53.60
2019-01-21T08:27:14.133Z,50.30
2019-01-21T08:29:48.468Z,48.43
2019-01-21T08:32:33.351Z,47.48
2019-01-21T08:35:13.746Z,63.47
2019-01-21T08:37:58.251Z,54.20
2019-01-21T08:40:57.187Z,55.77
2019-01-21T08:43:43.473Z,57.13
2019-01-21T08:46:21.362Z,49.23
2019-01-21T08:48:53.700Z,55.67
2019-01-21T08:51:25.494Z,56.05
2019-01-21T08:54:06.626Z,63.40
2019-01-21T08:56:38.203Z,52.90
2019-01-21T08:59:18.554Z,52.23
2019-01-21T09:02:02.129Z,54.60
2019-01-21T09:04:53.135Z,49.77
2019-01-21T09:07:45.505Z,53.77
2019-01-21T09:10:37.003Z,49.93
2019-01-21T09:13:30.107Z,53.37
2019-01-21T09:16:16.635Z,51.67
2019-01-21T09:19:00.854Z,51.47
2019-01-21T09:21:44.558Z,56.77
2019-01-21T09:24:18.815Z,48.83
2019-01-21T09:27:08.419Z,53.73
2019-01-21T09:29:49.822Z,54.65
2019-01-21T09:32:39.243Z,48.17
2019-01-21T09:35:14.093Z,47.00
2019-01-21T09:38:00.526Z,50.17
2019-01-21T09:40:44.095Z,41.53
2019-01-21T09:43:36.547Z,51.20
2019-01-21T09:46:25.495Z,49.50
2019-01-21T09:48:53.188Z,50.03
2019-01-21T09:51:23.764Z,51.90
2019-01-21T09:53:52.911Z,43.83
2019-01-21T09:56:21.408Z,48.40
2019-01-21T09:58:50.849Z,39.40
2019-01-21T10:01:21.935Z,42.50
2019-01-21T10:03:50.276Z,42.63
2019-01-21T10:06:20.042Z,40.40
2019-01-21T10:09:04.396Z,39.93
2019-01-21T10:12:03.240Z,42.17
2019-01-21T10:14:53.162Z,40.87
2019-01-21T10:17:42.539Z,44.27
2019-01-21T10:20:29.272Z,46.17
2019-01-21T10:23:17.199Z,39.83
2019-01-21T10:26:00.752Z,39.50
2019-01-21T10:28:39.781Z,38.90
2019-01-21T10:31:35.336Z,41.02
2019-01-21T10:34:26.255Z,40.27
2019-01-21T10:37:18.878Z,36.83
2019-01-21T10:40:08.174Z,34.70
2019-01-21T10:42:48.688Z,40.13
2019-01-21T10:45:32.052Z,40.53
2019-01-21T10:48:29.068Z,35.83
2019-01-21T10:51:03.189Z,34.67
2019-01-21T10:53:40.620Z,36.70
2019-01-21T10:56:15.135Z,35.87
2019-01-21T10:58:49.350Z,37.20
2019-01-21T11:01:39.156Z,40.17
2019-01-21T11:04:28.656Z,38.77
2019-01-21T11:07:15.526Z,39.07
2019-01-21T11:09:52.606Z,37.38
2019-01-21T11:12:27.230Z,32.43
2019-01-21T11:15:13.703Z,35.73
2019-01-21T11:17:51.723Z,33.23
2019-01-21T11:20:29.130Z,31.67
2019-01-21T11:23:03.531Z,37.30
2019-01-21T11:26:04.079Z,30.73
2019-01-21T11:28:50.770Z,32.30
2019-01-21T11:31:43.470Z,30.97
2019-01-21T11:34:15.034Z,36.90
2019-01-21T11:36:46.571Z,38.30
2019-01-21T11:39:40.211Z,36.27
2019-01-21T11:42:30.988Z,33.70
2019-01-21T11:45:18.589Z,36.87
2019-01-21T11:47:50.384Z,34.30
2019-01-21T11:50:46.109Z,33.27
2019-01-21T11:53:52.599Z,35.03
2019-01-21T11:56:26.909Z,33.90
2019-01-21T11:58:58.439Z,31.87
2019-01-21T12:01:49.638Z,33.55
2019-01-21T12:04:30.236Z,37.87
2019-01-21T12:07:24.697Z,32.03
2019-01-21T12:10:12.581Z,37.60
2019-01-21T12:12:50.004Z,32.10
2019-01-21T12:15:45.565Z,29.57
2019-01-21T12:18:25.369Z,31.40
2019-01-21T12:21:12.653Z,31.90
2019-01-21T12:23:49.786Z,28.73
2019-01-21T12:26:45.391Z,29.63
2019-01-21T12:29:17.040Z,26.10
2019-01-21T12:31:51.525Z,28.97
2019-01-21T12:34:35.209Z,31.07
2019-01-21T12:37:06.745Z,34.90
2019-01-21T12:39:53.224Z,31.43
2019-01-21T12:42:31.705Z,31.50
2019-01-21T12:45:06.214Z,40.00
2019-01-21T12:47:55.859Z,36.70
2019-01-21T12:50:43.708Z,33.27
2019-01-21T12:53:49.691Z,39.37
2019-01-21T12:56:38.446Z,43.23
2019-01-21T12:59:17.935Z,33.50
2019-01-21T13:01:52.084Z,31.17
2019-01-21T13:04:38.197Z,30.47
2019-01-21T13:07:15.752Z,27.93
2019-01-21T13:10:09.497Z,33.97
2019-01-21T13:13:00.156Z,36.83
2019-01-21T13:15:49.276Z,28.13
2019-01-21T13:18:37.104Z,29.97
2019-01-21T13:21:34.660Z,29.23
2019-01-21T13:24:09.136Z,28.23
2019-01-21T13:26:58.517Z,28.00
2019-01-21T13:29:30.090Z,26.27
2019-01-21T13:32:26.917Z,29.07
2019-01-21T13:35:01.658Z,28.32
2019-01-21T13:37:35.953Z,30.33
2019-01-21T13:40:19.413Z,26.55
2019-01-21T13:42:59.400Z,28.17
2019-01-21T13:45:45.150Z,28.90
2019-01-21T13:48:18.392Z,25.37
2019-01-21T13:51:13.660Z,26.73
2019-01-21T13:53:46.956Z,24.80
2019-01-21T13:56:27.095Z,25.00
2019-01-21T13:59:01.676Z,27.87
2019-01-21T14:01:39.266Z,20.60
2019-01-21T14:04:19.663Z,21.60
2019-01-21T14:06:54.044Z,16.47
2019-01-21T14:09:28.091Z,17.07
2019-01-21T14:12:12.548Z,19.97
2019-01-21T14:15:00.472Z,20.27
2019-01-21T14:17:52.924Z,19.48
2019-01-21T14:20:24.668Z,21.70
2019-01-21T14:23:01.674Z,19.55
2019-01-21T14:25:44.634Z,20.88
2019-01-21T14:28:41.403Z,22.53
2019-01-21T14:31:35.629Z,21.40
2019-01-21T14:34:12.728Z,19.57
2019-01-21T14:37:17.371Z,23.35
2019-01-21T14:39:48.911Z,20.53
2019-01-21T14:42:26.851Z,25.10
2019-01-21T14:45:05.228Z,25.32
2019-01-21T14:47:58.625Z,20.90
2019-01-21T14:50:41.689Z,25.43
2019-01-21T14:53:22.316Z,26.53
2019-01-21T14:56:02.504Z,27.70
2019-01-21T14:58:39.395Z,22.40
2019-01-21T15:01:37.814Z,28.83
2019-01-21T15:04:12.600Z,27.53
2019-01-21T15:06:53.752Z,24.10
2019-01-21T15:09:37.271Z,26.30
2019-01-21T15:12:37.077Z,26.80
2019-01-21T15:15:30.957Z,27.23
2019-01-21T15:18:11.126Z,26.53
2019-01-21T15:20:57.489Z,27.60
2019-01-21T15:23:30.341Z,27.20
2019-01-21T15:26:04.927Z,26.33
2019-01-21T15:28:40.718Z,25.43
2019-01-21T15:31:30.016Z,25.73
2019-01-21T15:34:30.869Z,28.87
2019-01-21T15:37:04.726Z,25.40
2019-01-21T15:40:11.318Z,27.77
2019-01-21T15:42:51.875Z,27.23
2019-01-21T15:45:56.623Z,25.10
2019-01-21T15:48:36.937Z,27.00
2019-01-21T15:51:32.217Z,28.47
2019-01-21T15:54:03.867Z,28.50
2019-01-21T15:56:45.998Z,27.50
2019-01-21T15:59:23.507Z,29.63
2019-01-21T16:01:57.698Z,29.60
2019-01-21T16:04:48.917Z,27.13
2019-01-21T16:07:20.458Z,27.73
2019-01-21T16:09:59.232Z,35.37
2019-01-21T16:12:39.670Z,28.73
2019-01-21T16:15:47.213Z,32.53
2019-01-21T16:18:24.657Z,33.73
2019-01-21T16:21:00.337Z,32.10
2019-01-21T16:23:37.819Z,35.10
2019-01-21T16:26:06.495Z,34.25
2019-01-21T16:28:38.057Z,39.57
2019-01-21T16:31:15.452Z,44.93
2019-01-21T16:34:12.837Z,38.50
2019-01-21T16:36:50.455Z,36.23
2019-01-21T16:39:24.841Z,36.27
2019-01-21T16:41:59.130Z,37.23
2019-01-21T16:44:30.239Z,41.17
2019-01-21T16:46:58.705Z,41.40
2019-01-21T16:49:26.995Z,41.87
2019-01-21T16:51:55.300Z,40.50
2019-01-21T16:54:23.849Z,44.73
2019-01-21T16:56:52.270Z,47.08
2019-01-21T16:59:20.575Z,42.43
2019-01-21T17:01:48.944Z,41.67
2019-01-21T17:04:17.386Z,43.90
2019-01-21T17:06:45.694Z,40.03
2019-01-21T17:09:14.011Z,39.53
2019-01-21T17:11:42.279Z,40.30
2019-01-21T17:14:11.671Z,41.58
2019-01-21T17:16:39.985Z,44.97
2019-01-21T17:19:08.457Z,38.70
2019-01-21T17:21:36.834Z,40.87
2019-01-21T17:24:05.316Z,36.87
2019-01-21T17:26:33.588Z,43.30
2019-01-21T17:29:02.969Z,38.98
2019-01-21T17:31:31.377Z,42.57
2019-01-21T17:33:59.915Z,42.10
2019-01-21T17:36:28.270Z,36.67
2019-01-21T17:38:56.566Z,37.42
2019-01-21T17:41:24.908Z,40.60
2019-01-21T17:43:53.192Z,46.17
2019-01-21T17:46:21.556Z,41.40
2019-01-21T17:48:49.828Z,33.33
2019-01-21T17:51:19.734Z,41.57
2019-01-21T17:53:51.384Z,35.70
2019-01-21T17:56:22.838Z,36.43
2019-01-21T17:58:51.121Z,40.52
2019-01-21T18:01:19.458Z,43.43
2019-01-21T18:03:47.950Z,40.43
2019-01-21T18:06:16.267Z,38.35
2019-01-21T18:08:44.576Z,44.33
2019-01-21T18:11:16.767Z,42.67
2019-01-21T18:13:45.092Z,44.37
2019-01-21T18:16:15.893Z,44.17
2019-01-21T18:18:43.976Z,42.70
2019-01-21T18:21:12.336Z,42.90
2019-01-21T18:23:41.778Z,40.03
2019-01-21T18:26:11.322Z,49.93
2019-01-21T18:28:39.628Z,42.03
2019-01-21T18:31:08.030Z,45.07
2019-01-21T18:33:36.421Z,38.90
2019-01-21T18:36:04.750Z,42.48
2019-01-21T18:38:34.160Z,44.13
2019-01-21T18:41:02.506Z,43.73
2019-01-21T18:43:31.152Z,40.73
2019-01-21T18:45:59.523Z,38.17
2019-01-21T18:48:29.167Z,42.37
2019-01-21T18:51:00.598Z,42.75
2019-01-21T18:53:30.262Z,42.53
2019-01-21T18:56:00.173Z,46.20
2019-01-21T18:58:28.563Z,43.03
2019-01-21T19:00:57.003Z,43.27
2019-01-21T19:03:28.649Z,38.47
2019-01-21T19:05:57.094Z,49.67
2019-01-21T19:08:25.383Z,42.53
2019-01-21T19:10:54.694Z,41.37
2019-01-21T19:13:23.209Z,42.23
2019-01-21T19:15:53.169Z,44.87
2019-01-21T19:18:21.700Z,45.37
2019-01-21T19:20:55.497Z,41.28
2019-01-21T19:23:24.017Z,49.53
2019-01-21T19:25:55.345Z,44.13
2019-01-21T19:28:23.693Z,44.47
2019-01-21T19:30:54.457Z,42.45
2019-01-21T19:33:22.741Z,41.70
2019-01-21T19:35:52.039Z,44.88
2019-01-21T19:38:20.412Z,43.07
2019-01-21T19:40:48.790Z,40.10
2019-01-21T19:43:17.203Z,47.53
2019-01-21T19:45:47.160Z,43.27
2019-01-21T19:48:15.463Z,45.97
2019-01-21T19:50:45.500Z,44.63
2019-01-21T19:53:13.792Z,49.97
2019-01-21T19:55:43.733Z,48.02
2019-01-21T19:58:13.763Z,48.03
2019-01-21T20:00:42.091Z,45.40
2019-01-21T20:03:10.451Z,47.90
2019-01-21T20:05:40.501Z,48.90
2019-01-21T20:08:08.784Z,52.10
2019-01-21T20:10:39.784Z,53.30
2019-01-21T20:13:08.137Z,45.67
2019-01-21T20:15:36.484Z,45.47
2019-01-21T20:18:04.796Z,54.23
2019-01-21T20:20:36.279Z,52.23
2019-01-21T20:23:04.730Z,46.50
2019-01-21T20:25:34.637Z,45.60
2019-01-21T20:28:02.969Z,48.43
2019-01-21T20:30:31.302Z,49.73
2019-01-21T20:32:59.759Z,48.63
2019-01-21T20:35:29.752Z,47.10
2019-01-21T20:37:58.134Z,51.13
2019-01-21T20:40:28.158Z,51.27
2019-01-21T20:42:56.680Z,49.47
2019-01-21T20:45:25.963Z,49.43
2019-01-21T20:47:54.246Z,48.23
2019-01-21T20:50:25.823Z,52.65
2019-01-21T20:52:54.154Z,51.08
2019-01-21T20:55:22.502Z,49.97
2019-01-21T20:57:52.508Z,45.70
2019-01-21T21:00:29.988Z,53.50
2019-01-21T21:03:03.888Z,61.97
2019-01-21T21:05:32.204Z,53.13
2019-01-21T21:08:01.618Z,53.55
2019-01-21T21:10:31.597Z,50.00
2019-01-21T21:12:59.931Z,55.45
2019-01-21T21:15:30.681Z,53.37
2019-01-21T21:17:59.200Z,49.00
2019-01-21T21:20:28.790Z,52.53
2019-01-21T21:22:57.098Z,53.70
2019-01-21T21:25:27.074Z,55.47
2019-01-21T21:27:55.477Z,55.87
2019-01-21T21:30:31.610Z,59.23
2019-01-21T21:33:01.154Z,58.47
2019-01-21T21:35:29.536Z,59.33
2019-01-21T21:37:59.324Z,58.77
2019-01-21T21:40:27.818Z,63.70
2019-01-21T21:43:00.038Z,55.77
2019-01-21T21:45:28.425Z,58.17
2019-01-21T21:48:00.851Z,68.50
2019-01-21T21:50:30.325Z,60.93
2019-01-21T21:52:58.879Z,65.90
2019-01-21T21:55:29.735Z,61.73
2019-01-21T21:57:58.307Z,62.30
2019-01-21T22:00:28.553Z,66.63
2019-01-21T22:02:58.239Z,63.33
2019-01-21T22:05:27.964Z,59.30
2019-01-21T22:07:56.317Z,63.90
2019-01-21T22:10:26.650Z,67.40
2019-01-21T22:12:55.054Z,70.00
2019-01-21T22:15:25.105Z,69.50
2019-01-21T22:17:57.417Z,64.87
2019-01-21T22:20:25.975Z,68.63
2019-01-21T22:22:57.461Z,67.37
2019-01-21T22:25:25.849Z,65.50
2019-01-21T22:27:56.201Z,57.20
2019-01-21T22:30:25.935Z,62.60
2019-01-21T22:32:54.353Z,62.47
2019-01-21T22:35:22.813Z,68.50
2019-01-21T22:37:51.239Z,66.47
2019-01-21T22:40:20.925Z,69.35
2019-01-21T22:42:49.653Z,66.90
2019-01-21T22:45:19.230Z,67.70
2019-01-21T22:47:48.889Z,68.33
2019-01-21T22:50:18.511Z,67.25
2019-01-21T22:52:48.503Z,64.90
2019-01-21T22:55:17.481Z,68.77
2019-01-21T22:57:46.071Z,63.02
2019-01-21T23:00:35.654Z,62.67
2019-01-21T23:03:06.921Z,63.80
2019-01-21T23:05:35.205Z,59.60
2019-01-21T23:08:05.245Z,59.70
2019-01-21T23:10:33.635Z,60.93
2019-01-21T23:13:04.329Z,69.90
2019-01-21T23:15:32.685Z,68.93
2019-01-21T23:18:04.251Z,69.13
2019-01-21T23:20:33.176Z,75.20
2019-01-21T23:23:02.577Z,64.83
2019-01-21T23:25:30.973Z,67.07
2019-01-21T23:27:59.370Z,68.28
2019-01-21T23:30:29.121Z,64.23
2019-01-21T23:32:59.136Z,62.60
2019-01-21T23:35:27.504Z,62.77
2019-01-21T23:37:55.977Z,65.00
2019-01-21T23:40:27.632Z,68.45
2019-01-21T23:42:58.819Z,67.12
2019-01-21T23:45:31.237Z,68.47
2019-01-21T23:47:59.585Z,65.67
2019-01-21T23:50:27.948Z,64.43
2019-01-21T23:52:58.111Z,67.25
2019-01-21T23:55:27.841Z,72.70
2019-01-21T23:57:58.944Z,67.37
